Time;durP1;ratioP1;P1;durP2;ratioP2;P2;SDS_P1;SDS_P2;PMS_P1;PMS_P2;Temp;Humidity;BMP_temperature;BMP_pressure;BME280_temperature;BME280_humidity;BME280_pressure;Samples;Min_cycle;Max_cycle;Signal;HPM_P1;HPM_P2
2023/10/20 00:00:18;;;;;;;;;2.00;2.00;;;;;-128.00;-1.00;-1.00;106602;1256;1002749;-35
2023/10/20 00:03:06;;;;;;;;;1.00;1.00;;;;;-128.00;-1.00;-1.00;106591;1264;1006724;-34
2023/10/20 00:05:34;;;;;;;;;1.00;1.00;;;;;-128.00;-1.00;-1.00;106636;1264;1008866;-34
2023/10/20 00:08:02;;;;;;;;;1.00;1.00;;;;;-128.00;-1.00;-1.00;106645;1250;1007162;-35
2023/10/20 00:10:33;;;;;;;;;1.00;1.00;;;;;-128.00;-1.00;-1.00;106654;1264;1002562;-35
2023/10/20 00:13:01;;;;;;;;;2.00;1.00;;;;;-128.00;-1.00;-1.00;106683;1249;1007235;-35
2023/10/20 00:15:28;;;;;;;;;1.00;1.00;;;;;-128.00;-1.00;-1.00;106687;1256;1002726;-34
2023/10/20 00:17:56;;;;;;;;;1.50;1.50;;;;;-128.00;-1.00;-1.00;106650;1256;1002685;-34
2023/10/20 00:20:23;;;;;;;;;1.00;1.00;;;;;-128.00;-1.00;-1.00;106672;1257;1002230;-34
2023/10/20 00:22:50;;;;;;;;;1.00;1.00;;;;;-128.00;-1.00;-1.00;106642;1256;1002491;-35
2023/10/20 00:25:18;;;;;;;;;2.00;1.00;;;;;-128.00;-1.00;-1.00;106669;1264;1003060;-35
2023/10/20 00:27:46;;;;;;;;;1.00;1.00;;;;;-128.00;-1.00;-1.00;106614;1256;1002993;-34
2023/10/20 00:30:13;;;;;;;;;2.00;1.00;;;;;-128.00;-1.00;-1.00;106656;1256;1006088;-34
2023/10/20 00:32:41;;;;;;;;;1.00;1.00;;;;;-128.00;-1.00;-1.00;106639;1258;1002662;-35
2023/10/20 00:35:09;;;;;;;;;1.00;1.00;;;;;-128.00;-1.00;-1.00;106610;1256;1002305;-35
2023/10/20 00:37:36;;;;;;;;;1.00;1.00;;;;;-128.00;-1.00;-1.00;106615;1249;1005447;-35
2023/10/20 00:40:04;;;;;;;;;1.00;1.00;;;;;-128.00;-1.00;-1.00;106642;1256;1002871;-35
2023/10/20 00:42:31;;;;;;;;;1.00;1.00;;;;;-128.00;-1.00;-1.00;106616;1250;1003168;-36
2023/10/20 00:44:58;;;;;;;;;1.00;1.00;;;;;-128.00;-1.00;-1.00;106600;1256;1003088;-34
2023/10/20 00:47:25;;;;;;;;;1.00;1.00;;;;;-128.00;-1.00;-1.00;106635;1256;1002437;-34
2023/10/20 00:49:53;;;;;;;;;1.00;1.00;;;;;-128.00;-1.00;-1.00;106580;1250;1002434;-35
2023/10/20 00:52:20;;;;;;;;;1.00;1.00;;;;;-128.00;-1.00;-1.00;106616;1257;1002543;-34
2023/10/20 00:54:48;;;;;;;;;1.00;1.00;;;;;-128.00;-1.00;-1.00;106598;1256;1002606;-35
2023/10/20 00:57:16;;;;;;;;;1.00;1.00;;;;;-128.00;-1.00;-1.00;106623;1256;1002284;-35
2023/10/20 00:59:43;;;;;;;;;2.00;2.00;;;;;-128.00;-1.00;-1.00;106611;1256;1002772;-34
2023/10/20 01:02:10;;;;;;;;;1.00;1.00;;;;;-128.00;-1.00;-1.00;106618;1256;1002470;-34
2023/10/20 01:04:38;;;;;;;;;1.00;1.00;;;;;-128.00;-1.00;-1.00;106661;1256;1002689;-34
2023/10/20 01:07:05;;;;;;;;;1.00;1.00;;;;;-128.00;-1.00;-1.00;106593;1256;1002511;-34
2023/10/20 01:09:32;;;;;;;;;1.00;1.00;;;;;-128.00;-1.00;-1.00;106616;1256;1002722;-34
2023/10/20 01:12:00;;;;;;;;;2.00;1.00;;;;;-128.00;-1.00;-1.00;106603;1257;1002927;-34
2023/10/20 01:14:27;;;;;;;;;2.00;1.00;;;;;-128.00;-1.00;-1.00;106632;1256;1002818;-35
2023/10/20 01:16:54;;;;;;;;;1.00;1.00;;;;;-128.00;-1.00;-1.00;106648;1250;1002377;-35
2023/10/20 01:19:21;;;;;;;;;2.00;1.00;;;;;-128.00;-1.00;-1.00;106621;1256;1002803;-36
2023/10/20 01:21:49;;;;;;;;;1.33;1.33;;;;;-128.00;-1.00;-1.00;106618;1256;1002413;-35
2023/10/20 01:24:16;;;;;;;;;2.00;2.00;;;;;-128.00;-1.00;-1.00;106621;1250;1002727;-34
2023/10/20 01:26:44;;;;;;;;;1.00;1.00;;;;;-128.00;-1.00;-1.00;106653;1256;1002733;-34
2023/10/20 01:29:12;;;;;;;;;1.00;1.00;;;;;-128.00;-1.00;-1.00;106591;1256;1002760;-35
2023/10/20 01:31:39;;;;;;;;;1.00;1.00;;;;;-128.00;-1.00;-1.00;106611;1256;1006453;-34
2023/10/20 01:34:06;;;;;;;;;1.00;1.00;;;;;-128.00;-1.00;-1.00;106620;1256;1002539;-35
2023/10/20 01:36:35;;;;;;;;;2.00;2.00;;;;;-128.00;-1.00;-1.00;106615;1250;1002674;-35
2023/10/20 01:39:04;;;;;;;;;1.00;1.00;;;;;-128.00;-1.00;-1.00;106644;1256;1006862;-34
2023/10/20 01:41:32;;;;;;;;;1.00;1.00;;;;;-128.00;-1.00;-1.00;106667;1256;1007065;-35
2023/10/20 01:43:59;;;;;;;;;1.00;1.00;;;;;-128.00;-1.00;-1.00;106630;1256;1003113;-35
2023/10/20 01:46:26;;;;;;;;;1.00;1.00;;;;;-128.00;-1.00;-1.00;106602;1256;1003594;-34
2023/10/20 01:48:54;;;;;;;;;1.00;1.00;;;;;-128.00;-1.00;-1.00;106612;1256;1003385;-34
2023/10/20 01:51:21;;;;;;;;;1.00;1.00;;;;;-128.00;-1.00;-1.00;106663;1256;1002964;-34
2023/10/20 01:53:48;;;;;;;;;1.00;1.00;;;;;-128.00;-1.00;-1.00;106596;1256;1002823;-35
2023/10/20 01:56:16;;;;;;;;;2.00;2.00;;;;;-128.00;-1.00;-1.00;106641;1250;1002764;-35
2023/10/20 01:58:43;;;;;;;;;1.00;1.00;;;;;-128.00;-1.00;-1.00;106641;1264;1002775;-36
2023/10/20 02:01:10;;;;;;;;;1.00;1.00;;;;;-128.00;-1.00;-1.00;106662;1256;1002681;-35
2023/10/20 02:03:38;;;;;;;;;1.00;1.00;;;;;-128.00;-1.00;-1.00;106732;1256;1002752;-35
2023/10/20 02:06:05;;;;;;;;;1.00;1.00;;;;;-128.00;-1.00;-1.00;106663;1257;1002364;-35
2023/10/20 02:08:32;;;;;;;;;1.00;1.00;;;;;-128.00;-1.00;-1.00;106657;1256;1002779;-36
2023/10/20 02:11:00;;;;;;;;;1.00;1.00;;;;;-128.00;-1.00;-1.00;106617;1257;1004922;-35
2023/10/20 02:13:27;;;;;;;;;1.00;1.00;;;;;-128.00;-1.00;-1.00;106595;1256;1003150;-35
2023/10/20 02:15:55;;;;;;;;;1.00;1.00;;;;;-128.00;-1.00;-1.00;106614;1256;1002701;-34
2023/10/20 02:18:22;;;;;;;;;1.00;1.00;;;;;-128.00;-1.00;-1.00;106626;1256;1003073;-36
2023/10/20 02:20:49;;;;;;;;;1.00;1.00;;;;;-128.00;-1.00;-1.00;106679;1256;1003585;-34
2023/10/20 02:23:17;;;;;;;;;1.00;1.00;;;;;-128.00;-1.00;-1.00;106638;1264;1002386;-35
2023/10/20 02:25:44;;;;;;;;;1.00;1.00;;;;;-128.00;-1.00;-1.00;106598;1256;1002506;-35
2023/10/20 02:28:11;;;;;;;;;1.00;1.00;;;;;-128.00;-1.00;-1.00;106657;1250;1002847;-35
2023/10/20 02:30:39;;;;;;;;;1.25;1.25;;;;;-128.00;-1.00;-1.00;106643;1250;1003074;-35
2023/10/20 02:33:06;;;;;;;;;1.00;1.00;;;;;-128.00;-1.00;-1.00;106654;1256;1002968;-35
2023/10/20 02:35:33;;;;;;;;;1.00;1.00;;;;;-128.00;-1.00;-1.00;106685;1257;1005970;-34
2023/10/20 02:38:01;;;;;;;;;1.00;1.00;;;;;-128.00;-1.00;-1.00;106667;1249;1005741;-35
2023/10/20 02:40:28;;;;;;;;;1.00;1.00;;;;;-128.00;-1.00;-1.00;106622;1256;1003020;-34
2023/10/20 02:42:56;;;;;;;;;1.00;1.00;;;;;-128.00;-1.00;-1.00;106622;1250;1002849;-35
2023/10/20 02:45:23;;;;;;;;;1.50;1.00;;;;;-128.00;-1.00;-1.00;106628;1256;1002376;-35
2023/10/20 02:47:50;;;;;;;;;1.00;1.00;;;;;-128.00;-1.00;-1.00;106649;1256;1002705;-34
2023/10/20 02:50:18;;;;;;;;;1.00;1.00;;;;;-128.00;-1.00;-1.00;106586;1256;1002974;-34
2023/10/20 02:52:45;;;;;;;;;1.00;1.00;;;;;-128.00;-1.00;-1.00;106597;1264;1003093;-35
2023/10/20 02:55:13;;;;;;;;;1.50;1.00;;;;;-128.00;-1.00;-1.00;106629;1256;1003321;-35
2023/10/20 02:57:40;;;;;;;;;1.00;1.00;;;;;-128.00;-1.00;-1.00;106600;1256;1003301;-36
2023/10/20 03:00:11;;;;;;;;;1.00;1.00;;;;;-128.00;-1.00;-1.00;106517;1256;1004436;-34
2023/10/20 03:02:38;;;;;;;;;1.00;1.00;;;;;-128.00;-1.00;-1.00;106525;1256;1006709;-34
2023/10/20 03:05:07;;;;;;;;;1.00;1.00;;;;;-128.00;-1.00;-1.00;106644;1256;1002705;-34
2023/10/20 03:07:35;;;;;;;;;1.50;1.50;;;;;-128.00;-1.00;-1.00;106709;1257;1006322;-35
2023/10/20 03:10:02;;;;;;;;;2.00;2.00;;;;;-128.00;-1.00;-1.00;106604;1256;1002888;-35
2023/10/20 03:12:29;;;;;;;;;1.00;1.00;;;;;-128.00;-1.00;-1.00;106636;1249;1002183;-35
2023/10/20 03:14:57;;;;;;;;;1.00;1.00;;;;;-128.00;-1.00;-1.00;106635;1249;1002724;-34
2023/10/20 03:17:24;;;;;;;;;1.00;1.00;;;;;-128.00;-1.00;-1.00;106622;1256;1002894;-35
2023/10/20 03:19:52;;;;;;;;;2.00;1.50;;;;;-128.00;-1.00;-1.00;106693;1256;1002998;-33
2023/10/20 03:22:19;;;;;;;;;1.00;1.00;;;;;-128.00;-1.00;-1.00;106699;1256;1002616;-34
2023/10/20 03:24:46;;;;;;;;;1.00;1.00;;;;;-128.00;-1.00;-1.00;106596;1257;1003896;-35
2023/10/20 03:27:14;;;;;;;;;1.00;1.00;;;;;-128.00;-1.00;-1.00;106611;1250;1002908;-35
2023/10/20 03:29:41;;;;;;;;;2.00;1.00;;;;;-128.00;-1.00;-1.00;106599;1256;1002660;-35
2023/10/20 03:32:10;;;;;;;;;2.00;2.00;;;;;-128.00;-1.00;-1.00;106577;1257;1005772;-35
2023/10/20 03:34:37;;;;;;;;;1.00;1.00;;;;;-128.00;-1.00;-1.00;106593;1256;1006173;-35
2023/10/20 03:37:04;;;;;;;;;2.00;2.00;;;;;-128.00;-1.00;-1.00;106619;1256;1002940;-35
2023/10/20 03:39:33;;;;;;;;;2.00;2.00;;;;;-128.00;-1.00;-1.00;106617;1256;1002366;-35
2023/10/20 03:42:01;;;;;;;;;2.00;2.00;;;;;-128.00;-1.00;-1.00;106545;1250;1006217;-36
2023/10/20 03:44:28;;;;;;;;;2.00;2.00;;;;;-128.00;-1.00;-1.00;106580;1250;1002851;-33
2023/10/20 03:46:57;;;;;;;;;2.00;2.00;;;;;-128.00;-1.00;-1.00;106556;1258;1002970;-35
2023/10/20 03:49:24;;;;;;;;;2.00;2.00;;;;;-128.00;-1.00;-1.00;106504;1250;1006850;-35
2023/10/20 03:51:53;;;;;;;;;2.00;2.00;;;;;-128.00;-1.00;-1.00;106688;1250;1002623;-35
2023/10/20 03:54:24;;;;;;;;;2.00;2.00;;;;;-128.00;-1.00;-1.00;106616;1256;1006726;-35
2023/10/20 03:56:51;;;;;;;;;2.00;2.00;;;;;-128.00;-1.00;-1.00;106640;1256;1006921;-35
2023/10/20 03:59:19;;;;;;;;;2.00;2.00;;;;;-128.00;-1.00;-1.00;106658;1256;1002331;-36
2023/10/20 04:01:46;;;;;;;;;2.00;2.00;;;;;-128.00;-1.00;-1.00;106607;1256;1003106;-35
2023/10/20 04:04:13;;;;;;;;;4.00;4.00;;;;;-128.00;-1.00;-1.00;106619;1256;1003288;-36
2023/10/20 04:06:41;;;;;;;;;2.00;2.00;;;;;-128.00;-1.00;-1.00;106668;1256;1002515;-35
2023/10/20 04:09:09;;;;;;;;;2.00;2.00;;;;;-128.00;-1.00;-1.00;106695;1265;1002839;-35
2023/10/20 04:11:37;;;;;;;;;2.00;2.00;;;;;-128.00;-1.00;-1.00;106640;1256;1006240;-35
2023/10/20 04:14:06;;;;;;;;;2.00;2.00;;;;;-128.00;-1.00;-1.00;106608;1256;1006227;-35
2023/10/20 04:16:39;;;;;;;;;4.00;4.00;;;;;-128.00;-1.00;-1.00;106657;1256;1006933;-36
2023/10/20 04:19:09;;;;;;;;;2.00;2.00;;;;;-128.00;-1.00;-1.00;106633;1250;1005740;-35
2023/10/20 04:21:38;;;;;;;;;2.00;2.00;;;;;-128.00;-1.00;-1.00;106668;1256;1006973;-35
2023/10/20 04:24:06;;;;;;;;;2.00;2.00;;;;;-128.00;-1.00;-1.00;106460;1259;1007666;-35
2023/10/20 04:26:35;;;;;;;;;2.00;2.00;;;;;-128.00;-1.00;-1.00;106525;1250;1006396;-36
2023/10/20 04:29:23;;;;;;;;;4.00;2.00;;;;;-128.00;-1.00;-1.00;106609;1257;1006945;-36
2023/10/20 04:43:34;;;;;;;;;2.00;2.00;;;;;-128.00;-1.00;-1.00;106651;1256;1006635;-33
2023/10/20 04:51:28;;;;;;;;;229.50;203.00;;;;;-128.00;-1.00;-1.00;106622;1259;1006730;-34
2023/10/20 04:54:02;;;;;;;;;120.33;107.00;;;;;-128.00;-1.00;-1.00;106660;1259;1007930;-39
2023/10/20 04:56:39;;;;;;;;;106.00;87.00;;;;;-128.00;-1.00;-1.00;106654;1256;1007253;-35
2023/10/20 04:59:09;;;;;;;;;85.00;66.00;;;;;-128.00;-1.00;-1.00;106669;1264;1006576;-34
2023/10/20 05:01:43;;;;;;;;;84.00;67.00;;;;;-128.00;-1.00;-1.00;106620;1256;1005839;-34
2023/10/20 05:06:54;;;;;;;;;66.50;54.50;;;;;21.97;54.83;99147.41;107073;1286;19443;-33
2023/10/20 05:09:25;;;;;;;;;59.00;49.00;;;;;21.68;50.97;99146.39;108670;1263;19722;-33
2023/10/20 05:11:52;;;;;;;;;48.00;41.50;;;;;21.64;51.30;99151.47;108696;1263;19971;-34
2023/10/20 05:14:19;;;;;;;;;44.00;39.00;;;;;21.63;51.49;99150.40;108716;1263;19565;-33
2023/10/20 05:16:47;;;;;;;;;43.00;37.00;;;;;21.63;51.49;99144.02;109904;1253;20476;-35
2023/10/20 05:19:14;;;;;;;;;34.00;31.00;;;;;-98.07;9.46;19828.38;107079;1268;1002812;-34
2023/10/20 05:21:41;;;;;;;;;35.00;33.00;;;;;-128.00;-1.00;-1.00;106604;1257;1006933;-34
2023/10/20 05:24:09;;;;;;;;;33.50;30.00;;;;;-128.00;-1.00;-1.00;106602;1257;1003215;-34
2023/10/20 05:26:36;;;;;;;;;25.00;25.00;;;;;-128.00;-1.00;-1.00;106564;1257;1004122;-33
2023/10/20 05:29:04;;;;;;;;;25.50;24.00;;;;;-128.00;-1.00;-1.00;106571;1257;1002755;-34
2023/10/20 05:31:31;;;;;;;;;22.00;19.00;;;;;-128.00;-1.00;-1.00;106574;1257;1002526;-34
2023/10/20 05:33:58;;;;;;;;;22.33;18.67;;;;;-128.00;-1.00;-1.00;106563;1250;1003095;-34
2023/10/20 05:36:26;;;;;;;;;19.00;16.50;;;;;-128.00;-1.00;-1.00;106586;1257;1002794;-34
2023/10/20 05:38:53;;;;;;;;;21.33;18.33;;;;;-128.00;-1.00;-1.00;106580;1257;1002478;-34
2023/10/20 05:41:21;;;;;;;;;17.25;16.75;;;;;-128.00;-1.00;-1.00;106611;1250;1002311;-34
2023/10/20 05:43:52;;;;;;;;;17.00;16.33;;;;;-128.00;-1.00;-1.00;106583;1257;1006293;-34
2023/10/20 05:46:19;;;;;;;;;15.75;15.00;;;;;-128.00;-1.00;-1.00;106581;1257;1007236;-34
2023/10/20 05:48:47;;;;;;;;;12.00;11.00;;;;;-128.00;-1.00;-1.00;106617;1263;1002551;-35
2023/10/20 05:51:14;;;;;;;;;12.00;12.00;;;;;-128.00;-1.00;-1.00;106646;1255;1002558;-35
2023/10/20 05:53:41;;;;;;;;;13.33;13.33;;;;;-128.00;-1.00;-1.00;106637;1255;1002476;-34
2023/10/20 05:56:09;;;;;;;;;12.00;11.00;;;;;-128.00;-1.00;-1.00;106620;1263;1002836;-34
2023/10/20 05:58:37;;;;;;;;;11.00;9.00;;;;;-128.00;-1.00;-1.00;106629;1256;1002782;-34
2023/10/20 06:01:05;;;;;;;;;11.00;11.00;;;;;-128.00;-1.00;-1.00;106646;1256;1007143;-35
2023/10/20 06:03:32;;;;;;;;;9.00;9.00;;;;;-128.00;-1.00;-1.00;106626;1256;1002935;-34
2023/10/20 06:06:00;;;;;;;;;11.00;11.00;;;;;-128.00;-1.00;-1.00;106641;1255;1002384;-35
2023/10/20 06:08:28;;;;;;;;;8.00;7.50;;;;;-128.00;-1.00;-1.00;106675;1256;1002219;-34
2023/10/20 06:10:56;;;;;;;;;11.50;10.00;;;;;-128.00;-1.00;-1.00;106631;1257;1006748;-33
2023/10/20 06:13:23;;;;;;;;;11.00;10.00;;;;;-128.00;-1.00;-1.00;106618;1258;1002610;-31
2023/10/20 06:15:50;;;;;;;;;8.75;8.00;;;;;-128.00;-1.00;-1.00;106693;1256;1004504;-34
2023/10/20 06:18:18;;;;;;;;;10.00;8.00;;;;;-128.00;-1.00;-1.00;106665;1255;1003230;-34
2023/10/20 06:20:45;;;;;;;;;9.00;8.00;;;;;-128.00;-1.00;-1.00;106659;1247;1002739;-34
2023/10/20 06:23:13;;;;;;;;;7.00;7.00;;;;;-128.00;-1.00;-1.00;106681;1255;1002722;-34
2023/10/20 06:25:42;;;;;;;;;10.33;8.00;;;;;-128.00;-1.00;-1.00;106609;1247;1004851;-34
2023/10/20 06:28:09;;;;;;;;;8.00;7.00;;;;;-128.00;-1.00;-1.00;106651;1257;1006871;-34
2023/10/20 06:30:43;;;;;;;;;6.00;6.00;;;;;-128.00;-1.00;-1.00;106663;1255;1002217;-35
2023/10/20 06:33:16;;;;;;;;;5.00;5.00;;;;;-128.00;-1.00;-1.00;106685;1256;1005942;-34
2023/10/20 06:35:50;;;;;;;;;7.00;5.00;;;;;-128.00;-1.00;-1.00;106645;1256;1006626;-34
2023/10/20 06:38:19;;;;;;;;;6.75;6.75;;;;;-128.00;-1.00;-1.00;106699;1248;1006850;-34
2023/10/20 06:40:48;;;;;;;;;5.00;5.00;;;;;-128.00;-1.00;-1.00;106619;1256;1006559;-33
2023/10/20 06:43:16;;;;;;;;;7.00;5.00;;;;;-128.00;-1.00;-1.00;106650;1257;1006987;-34
2023/10/20 06:45:44;;;;;;;;;6.50;5.00;;;;;-128.00;-1.00;-1.00;106653;1256;1008108;-34
2023/10/20 06:48:11;;;;;;;;;4.67;4.67;;;;;-128.00;-1.00;-1.00;106660;1256;1002542;-34
2023/10/20 06:50:38;;;;;;;;;5.00;4.00;;;;;-128.00;-1.00;-1.00;106541;1264;1002807;-34
2023/10/20 06:53:06;;;;;;;;;7.00;4.50;;;;;-128.00;-1.00;-1.00;106617;1250;1002843;-34
2023/10/20 06:55:33;;;;;;;;;2.67;2.67;;;;;-128.00;-1.00;-1.00;106627;1256;1003763;-34
2023/10/20 06:58:01;;;;;;;;;5.50;5.50;;;;;-128.00;-1.00;-1.00;106641;1256;1002625;-34
2023/10/20 07:00:28;;;;;;;;;7.67;5.00;;;;;-128.00;-1.00;-1.00;106677;1256;1002761;-34
2023/10/20 07:02:55;;;;;;;;;4.00;4.00;;;;;-128.00;-1.00;-1.00;106642;1256;1002594;-35
2023/10/20 07:05:23;;;;;;;;;4.00;4.00;;;;;-128.00;-1.00;-1.00;106663;1257;1002425;-35
2023/10/20 07:07:51;;;;;;;;;4.00;4.00;;;;;-128.00;-1.00;-1.00;106647;1256;1006949;-35
2023/10/20 07:10:21;;;;;;;;;4.00;4.00;;;;;-128.00;-1.00;-1.00;106660;1256;1004097;-35
2023/10/20 07:12:48;;;;;;;;;4.00;4.00;;;;;-128.00;-1.00;-1.00;106608;1264;1006561;-34
2023/10/20 07:15:17;;;;;;;;;3.00;3.00;;;;;-128.00;-1.00;-1.00;106647;1256;1004961;-35
2023/10/20 07:17:45;;;;;;;;;4.33;4.00;;;;;-128.00;-1.00;-1.00;106627;1257;1008147;-34
2023/10/20 07:20:12;;;;;;;;;4.00;4.00;;;;;-128.00;-1.00;-1.00;106599;1259;1002872;-34
2023/10/20 07:22:39;;;;;;;;;2.00;2.00;;;;;-128.00;-1.00;-1.00;106653;1256;1002846;-35
2023/10/20 07:25:07;;;;;;;;;2.00;2.00;;;;;-128.00;-1.00;-1.00;106658;1257;1002963;-35
2023/10/20 07:27:35;;;;;;;;;2.67;2.67;;;;;-128.00;-1.00;-1.00;106593;1256;1006119;-35
2023/10/20 07:30:06;;;;;;;;;2.00;2.00;;;;;-128.00;-1.00;-1.00;106635;1263;1003294;-34
2023/10/20 07:32:33;;;;;;;;;2.00;2.00;;;;;-128.00;-1.00;-1.00;106645;1256;1006954;-32
2023/10/20 07:35:02;;;;;;;;;1.33;1.33;;;;;-128.00;-1.00;-1.00;106627;1247;1003422;-34
2023/10/20 07:37:31;;;;;;;;;2.00;2.00;;;;;-128.00;-1.00;-1.00;106672;1257;1007483;-33
2023/10/20 07:39:58;;;;;;;;;4.00;4.00;;;;;-128.00;-1.00;-1.00;106732;1256;1005641;-33
2023/10/20 07:42:25;;;;;;;;;2.00;2.00;;;;;-128.00;-1.00;-1.00;106625;1256;1002810;-34
2023/10/20 07:44:53;;;;;;;;;3.33;2.00;;;;;-128.00;-1.00;-1.00;106630;1256;1002609;-34
2023/10/20 07:47:20;;;;;;;;;2.00;2.00;;;;;-128.00;-1.00;-1.00;106618;1247;1002751;-33
2023/10/20 07:49:47;;;;;;;;;2.00;2.00;;;;;-128.00;-1.00;-1.00;106673;1247;1002303;-33
2023/10/20 07:52:15;;;;;;;;;4.00;4.00;;;;;-128.00;-1.00;-1.00;106633;1256;1002723;-34
2023/10/20 07:54:42;;;;;;;;;2.00;2.00;;;;;-128.00;-1.00;-1.00;106643;1256;1002239;-33
2023/10/20 07:58:50;;;;;;;;;6.67;6.67;;;;;21.82;51.34;99128.60;107127;1286;20678;-34
2023/10/20 08:01:19;;;;;;;;;2.00;2.00;;;;;21.65;49.74;99129.80;108736;1275;17523;-34
2023/10/20 08:03:47;;;;;;;;;4.00;4.00;;;;;21.59;50.04;99117.59;108670;1269;19581;-34
2023/10/20 08:06:15;;;;;;;;;2.00;2.00;;;;;-98.09;9.17;19821.01;105873;1275;1003016;-34
2023/10/20 08:08:42;;;;;;;;;2.00;2.00;;;;;-128.00;-1.00;-1.00;105178;1276;1007942;-34
2023/10/20 08:11:09;;;;;;;;;2.00;2.00;;;;;-128.00;-1.00;-1.00;105248;1269;1002287;-34
2023/10/20 08:13:37;;;;;;;;;2.00;2.00;;;;;-128.00;-1.00;-1.00;105236;1268;1002871;-34
2023/10/20 08:16:06;;;;;;;;;2.00;2.00;;;;;-128.00;-1.00;-1.00;105394;1266;1004425;-34
2023/10/20 08:18:34;;;;;;;;;3.33;2.00;;;;;-128.00;-1.00;-1.00;105366;1266;1006324;-34
2023/10/20 08:21:01;;;;;;;;;1.00;1.00;;;;;-128.00;-1.00;-1.00;105378;1266;1002881;-33
2023/10/20 08:23:29;;;;;;;;;2.00;2.00;;;;;-128.00;-1.00;-1.00;105342;1266;1002801;-33
2023/10/20 08:25:56;;;;;;;;;1.67;1.67;;;;;-128.00;-1.00;-1.00;105310;1269;1003131;-33
2023/10/20 08:28:24;;;;;;;;;2.00;2.00;;;;;-128.00;-1.00;-1.00;105285;1266;1003247;-33
2023/10/20 08:30:52;;;;;;;;;2.00;2.00;;;;;-128.00;-1.00;-1.00;105295;1266;1007690;-34
2023/10/20 08:33:19;;;;;;;;;2.00;2.00;;;;;-128.00;-1.00;-1.00;105320;1259;1004955;-34
2023/10/20 08:35:46;;;;;;;;;2.00;2.00;;;;;-128.00;-1.00;-1.00;105301;1266;1002782;-33
2023/10/20 08:38:14;;;;;;;;;2.00;2.00;;;;;-128.00;-1.00;-1.00;106426;1259;1002955;-33
2023/10/20 08:40:41;;;;;;;;;2.00;2.00;;;;;-128.00;-1.00;-1.00;106454;1253;1002662;-33
2023/10/20 08:43:08;;;;;;;;;1.00;1.00;;;;;-128.00;-1.00;-1.00;106410;1267;1002643;-34
2023/10/20 08:45:36;;;;;;;;;2.00;2.00;;;;;-128.00;-1.00;-1.00;106399;1260;1002587;-33
2023/10/20 08:48:03;;;;;;;;;2.00;2.00;;;;;-128.00;-1.00;-1.00;106468;1260;1003276;-33
2023/10/20 08:50:31;;;;;;;;;2.00;2.00;;;;;-128.00;-1.00;-1.00;106431;1260;1005050;-34
2023/10/20 08:52:59;;;;;;;;;2.00;2.00;;;;;-128.00;-1.00;-1.00;106449;1260;1007185;-34
2023/10/20 08:55:27;;;;;;;;;2.00;2.00;;;;;-128.00;-1.00;-1.00;106436;1260;1003047;-34
2023/10/20 08:57:54;;;;;;;;;2.00;2.00;;;;;-128.00;-1.00;-1.00;106445;1260;1006656;-34
2023/10/20 09:00:22;;;;;;;;;2.00;2.00;;;;;-128.00;-1.00;-1.00;106450;1260;1004623;-34
2023/10/20 09:02:49;;;;;;;;;2.00;2.00;;;;;-128.00;-1.00;-1.00;106418;1260;1002884;-34
2023/10/20 09:05:16;;;;;;;;;1.33;1.33;;;;;-128.00;-1.00;-1.00;106428;1267;1003908;-33
2023/10/20 09:07:44;;;;;;;;;2.00;2.00;;;;;-128.00;-1.00;-1.00;106422;1260;1003000;-33
2023/10/20 09:10:11;;;;;;;;;2.00;2.00;;;;;-128.00;-1.00;-1.00;106462;1260;1003055;-34
2023/10/20 09:12:38;;;;;;;;;2.00;2.00;;;;;-128.00;-1.00;-1.00;106433;1260;1003205;-34
2023/10/20 09:15:06;;;;;;;;;2.00;2.00;;;;;-128.00;-1.00;-1.00;106408;1260;1003142;-34
2023/10/20 09:17:33;;;;;;;;;2.00;2.00;;;;;-128.00;-1.00;-1.00;106412;1260;1002882;-35
2023/10/20 09:20:01;;;;;;;;;2.00;1.00;;;;;-128.00;-1.00;-1.00;106403;1261;1002608;-34
2023/10/20 09:22:29;;;;;;;;;2.00;2.00;;;;;-128.00;-1.00;-1.00;106433;1260;1002414;-34
2023/10/20 09:24:57;;;;;;;;;1.00;1.00;;;;;-128.00;-1.00;-1.00;106373;1260;1005819;-33
2023/10/20 09:27:24;;;;;;;;;1.00;1.00;;;;;-128.00;-1.00;-1.00;106440;1260;1002370;-34
2023/10/20 09:29:52;;;;;;;;;1.00;1.00;;;;;-128.00;-1.00;-1.00;106403;1267;1002714;-34
2023/10/20 09:32:19;;;;;;;;;2.00;2.00;;;;;-128.00;-1.00;-1.00;106411;1260;1002958;-34
2023/10/20 09:34:47;;;;;;;;;2.00;2.00;;;;;-128.00;-1.00;-1.00;106418;1253;1002583;-34
2023/10/20 09:37:14;;;;;;;;;1.67;1.67;;;;;-128.00;-1.00;-1.00;106378;1253;1002498;-35
2023/10/20 09:39:41;;;;;;;;;1.00;1.00;;;;;-128.00;-1.00;-1.00;106383;1268;1002484;-34
2023/10/20 09:42:09;;;;;;;;;5.00;4.00;;;;;-128.00;-1.00;-1.00;106404;1260;1002662;-35
2023/10/20 09:44:36;;;;;;;;;2.00;2.00;;;;;-128.00;-1.00;-1.00;106278;1260;1002589;-34
2023/10/20 09:47:03;;;;;;;;;1.50;1.50;;;;;-128.00;-1.00;-1.00;105905;1269;1002760;-34
2023/10/20 09:49:35;;;;;;;;;2.00;2.00;;;;;-128.00;-1.00;-1.00;105847;1269;1002921;-34
2023/10/20 09:52:05;;;;;;;;;1.00;1.00;;;;;-128.00;-1.00;-1.00;105838;1262;1007552;-34
2023/10/20 09:54:32;;;;;;;;;2.00;2.00;;;;;-128.00;-1.00;-1.00;105865;1263;1005698;-35
2023/10/20 09:56:59;;;;;;;;;2.00;2.00;;;;;-128.00;-1.00;-1.00;105840;1263;1002939;-35
2023/10/20 09:59:27;;;;;;;;;2.00;2.00;;;;;-128.00;-1.00;-1.00;105874;1262;1002827;-34
2023/10/20 10:01:55;;;;;;;;;4.00;3.50;;;;;-128.00;-1.00;-1.00;105850;1269;1002835;-34
2023/10/20 10:04:23;;;;;;;;;2.00;2.00;;;;;-128.00;-1.00;-1.00;105854;1263;1006815;-34
2023/10/20 10:06:50;;;;;;;;;2.00;2.00;;;;;-128.00;-1.00;-1.00;105886;1261;1003318;-34
2023/10/20 10:09:18;;;;;;;;;2.00;2.00;;;;;-128.00;-1.00;-1.00;105854;1263;1002995;-34
2023/10/20 10:11:45;;;;;;;;;2.00;1.25;;;;;-128.00;-1.00;-1.00;105860;1263;1002603;-34
2023/10/20 10:14:13;;;;;;;;;2.00;2.00;;;;;-128.00;-1.00;-1.00;105864;1263;1002356;-34
2023/10/20 10:16:40;;;;;;;;;2.00;2.00;;;;;-128.00;-1.00;-1.00;105880;1263;1002666;-33
2023/10/20 10:19:08;;;;;;;;;2.00;2.00;;;;;-128.00;-1.00;-1.00;105881;1254;1002530;-33
2023/10/20 10:21:35;;;;;;;;;2.00;2.00;;;;;-128.00;-1.00;-1.00;105866;1254;1002674;-33
2023/10/20 10:24:03;;;;;;;;;2.00;2.00;;;;;-128.00;-1.00;-1.00;105874;1263;1002450;-33
2023/10/20 10:26:31;;;;;;;;;2.00;2.00;;;;;-128.00;-1.00;-1.00;105845;1263;1003006;-33
2023/10/20 10:28:58;;;;;;;;;2.00;2.00;;;;;-128.00;-1.00;-1.00;105868;1261;1002511;-32
2023/10/20 10:31:26;;;;;;;;;2.00;2.00;;;;;-128.00;-1.00;-1.00;105860;1262;1003387;-33
2023/10/20 10:33:53;;;;;;;;;2.00;2.00;;;;;-128.00;-1.00;-1.00;105870;1254;1005719;-33
2023/10/20 10:36:20;;;;;;;;;4.00;4.00;;;;;-128.00;-1.00;-1.00;106035;1260;1001982;-33
2023/10/20 10:38:48;;;;;;;;;4.00;2.00;;;;;-128.00;-1.00;-1.00;106057;1261;1002833;-35
2023/10/20 10:41:15;;;;;;;;;2.00;2.00;;;;;-128.00;-1.00;-1.00;106068;1261;1002680;-34
2023/10/20 10:43:43;;;;;;;;;2.00;2.00;;;;;-128.00;-1.00;-1.00;106071;1260;1002804;-34
2023/10/20 10:46:10;;;;;;;;;3.33;2.67;;;;;-128.00;-1.00;-1.00;106052;1261;1003287;-34
2023/10/20 10:48:39;;;;;;;;;2.00;1.67;;;;;-128.00;-1.00;-1.00;106631;1257;1006612;-34
2023/10/20 10:51:07;;;;;;;;;2.00;2.00;;;;;-128.00;-1.00;-1.00;106654;1256;1007266;-34
2023/10/20 10:53:34;;;;;;;;;2.00;2.00;;;;;-128.00;-1.00;-1.00;106663;1248;1002760;-34
2023/10/20 10:56:02;;;;;;;;;2.00;2.00;;;;;-128.00;-1.00;-1.00;106600;1264;1006288;-34
2023/10/20 10:58:30;;;;;;;;;2.67;2.67;;;;;-128.00;-1.00;-1.00;106612;1256;1002551;-34
2023/10/20 11:00:57;;;;;;;;;2.00;2.00;;;;;-128.00;-1.00;-1.00;106640;1256;1005905;-34
2023/10/20 11:03:25;;;;;;;;;2.00;2.00;;;;;-128.00;-1.00;-1.00;106682;1256;1002663;-33
2023/10/20 11:05:52;;;;;;;;;4.00;2.00;;;;;-128.00;-1.00;-1.00;106671;1256;1002806;-33
2023/10/20 11:08:20;;;;;;;;;4.00;2.00;;;;;-128.00;-1.00;-1.00;106661;1256;1003896;-34
2023/10/20 11:10:49;;;;;;;;;2.00;2.00;;;;;-128.00;-1.00;-1.00;106691;1256;1002898;-34
2023/10/20 11:13:17;;;;;;;;;2.00;2.00;;;;;-128.00;-1.00;-1.00;106645;1256;1007355;-34
2023/10/20 11:15:44;;;;;;;;;4.00;4.00;;;;;-128.00;-1.00;-1.00;106650;1256;1005669;-35
2023/10/20 11:18:12;;;;;;;;;2.00;2.00;;;;;-128.00;-1.00;-1.00;106655;1257;1002477;-34
2023/10/20 11:20:40;;;;;;;;;1.50;1.50;;;;;-128.00;-1.00;-1.00;106638;1256;1004605;-33
2023/10/20 11:23:08;;;;;;;;;4.50;4.00;;;;;-128.00;-1.00;-1.00;106610;1256;1005892;-34
2023/10/20 11:25:36;;;;;;;;;4.00;4.00;;;;;-128.00;-1.00;-1.00;106632;1256;1002607;-34
2023/10/20 11:28:04;;;;;;;;;4.00;2.00;;;;;-128.00;-1.00;-1.00;106743;1248;1006965;-34
2023/10/20 11:30:32;;;;;;;;;2.00;2.00;;;;;-128.00;-1.00;-1.00;106653;1248;1002836;-34
2023/10/20 11:32:59;;;;;;;;;2.50;2.50;;;;;-128.00;-1.00;-1.00;106676;1256;1002822;-34
2023/10/20 11:35:26;;;;;;;;;2.00;2.00;;;;;-128.00;-1.00;-1.00;106654;1264;1002762;-35
2023/10/20 11:37:54;;;;;;;;;2.00;2.00;;;;;-128.00;-1.00;-1.00;106606;1256;1002505;-34